createdAt,value
2022-12-08T00:01:06.232Z,21.34
2022-12-08T00:03:34.720Z,21.34
2022-12-08T00:06:03.472Z,21.38
2022-12-08T00:08:30.951Z,22.09
2022-12-08T00:10:58.390Z,21.19
2022-12-08T00:13:27.248Z,21.04
2022-12-08T00:16:00.376Z,21.12
2022-12-08T00:18:27.785Z,20.88
2022-12-08T00:20:55.830Z,20.83
2022-12-08T00:23:23.286Z,19.99
2022-12-08T00:25:50.981Z,20.39
2022-12-08T00:28:19.153Z,21.26
2022-12-08T00:30:48.205Z,20.29
2022-12-08T00:33:15.788Z,21.06
2022-12-08T00:35:43.507Z,21.30
2022-12-08T00:38:11.026Z,20.18
2022-12-08T00:40:38.571Z,21.79
2022-12-08T00:43:06.304Z,19.87
2022-12-08T00:45:34.350Z,20.48
2022-12-08T00:48:03.269Z,20.07
2022-12-08T00:50:31.172Z,20.85
2022-12-08T00:52:58.629Z,20.13
2022-12-08T00:55:26.149Z,20.73
2022-12-08T00:57:53.626Z,20.29
2022-12-08T01:00:21.581Z,20.03
2022-12-08T01:02:49.048Z,20.49
2022-12-08T01:05:20.370Z,19.37
2022-12-08T01:07:48.355Z,20.03
2022-12-08T01:10:16.643Z,19.22
2022-12-08T01:12:44.213Z,19.48
2022-12-08T01:15:12.065Z,20.70
2022-12-08T01:17:39.616Z,21.02
2022-12-08T01:20:08.215Z,21.45
2022-12-08T01:22:37.357Z,21.39
2022-12-08T01:25:05.564Z,20.35
2022-12-08T01:27:33.058Z,20.84
2022-12-08T01:30:00.626Z,21.03
2022-12-08T01:32:28.306Z,21.48
2022-12-08T01:34:55.801Z,20.98
2022-12-08T01:37:23.330Z,19.67
2022-12-08T01:39:52.357Z,20.22
2022-12-08T01:42:21.888Z,20.81
2022-12-08T01:45:00.739Z,20.23
2022-12-08T01:47:34.596Z,19.69
2022-12-08T01:50:03.234Z,20.18
2022-12-08T01:52:36.936Z,20.04
2022-12-08T01:55:11.153Z,20.77
2022-12-08T01:57:43.734Z,20.27
2022-12-08T02:00:15.426Z,20.69
2022-12-08T02:02:50.214Z,21.19
2022-12-08T02:05:21.078Z,19.76
2022-12-08T02:07:49.570Z,20.53
2022-12-08T02:10:21.321Z,20.57
2022-12-08T02:12:54.716Z,19.75
2022-12-08T02:15:31.652Z,20.78
2022-12-08T02:18:15.247Z,20.73
2022-12-08T02:20:51.065Z,19.68
2022-12-08T02:23:29.777Z,19.95
2022-12-08T02:26:33.626Z,18.92
2022-12-08T02:29:35.513Z,19.69
2022-12-08T02:32:22.698Z,20.40
2022-12-08T02:34:58.490Z,19.12
2022-12-08T02:37:32.312Z,19.37
2022-12-08T02:40:08.039Z,20.88
2022-12-08T02:42:40.221Z,19.51
2022-12-08T02:45:13.446Z,18.11
2022-12-08T02:47:41.914Z,20.44
2022-12-08T02:50:12.294Z,19.54
2022-12-08T02:52:43.021Z,18.66
2022-12-08T02:55:18.492Z,19.16
2022-12-08T02:58:08.242Z,19.52
2022-12-08T03:00:39.086Z,20.43
2022-12-08T03:03:14.953Z,17.99
2022-12-08T03:05:57.765Z,19.60
2022-12-08T03:08:33.340Z,18.75
2022-12-08T03:11:07.297Z,20.24
2022-12-08T03:13:40.716Z,19.00
2022-12-08T03:16:11.227Z,20.29
2022-12-08T03:18:44.293Z,19.81
2022-12-08T03:21:16.589Z,20.18
2022-12-08T03:23:46.664Z,20.07
2022-12-08T03:26:17.630Z,19.45
2022-12-08T03:28:47.165Z,19.79
2022-12-08T03:31:17.411Z,20.41
2022-12-08T03:33:49.337Z,19.70
2022-12-08T03:36:19.249Z,17.89
2022-12-08T03:38:50.587Z,20.12
2022-12-08T03:41:18.120Z,19.36
2022-12-08T03:43:46.510Z,20.37
2022-12-08T03:46:14.312Z,19.62
2022-12-08T03:48:42.093Z,20.30
2022-12-08T03:51:10.588Z,18.96
2022-12-08T03:53:40.117Z,18.78
2022-12-08T03:56:16.005Z,20.64
2022-12-08T03:58:44.077Z,18.01
2022-12-08T04:01:12.644Z,20.49
2022-12-08T04:03:40.893Z,18.71
2022-12-08T04:06:08.708Z,20.13
2022-12-08T04:08:36.239Z,19.99
2022-12-08T04:11:06.049Z,20.33
2022-12-08T04:13:33.545Z,20.47
2022-12-08T04:16:01.020Z,20.78
2022-12-08T04:18:28.758Z,20.81
2022-12-08T04:20:56.321Z,16.82
2022-12-08T04:23:23.951Z,19.92
2022-12-08T04:25:51.686Z,20.17
2022-12-08T04:28:20.914Z,19.80
2022-12-08T04:30:48.734Z,19.38
2022-12-08T04:33:16.494Z,17.27
2022-12-08T04:35:43.914Z,19.18
2022-12-08T04:38:11.541Z,18.29
2022-12-08T04:40:39.434Z,17.00
2022-12-08T04:43:07.036Z,16.89
2022-12-08T04:45:36.077Z,15.75
2022-12-08T04:48:03.945Z,15.92
2022-12-08T04:50:31.549Z,15.65
2022-12-08T04:52:59.024Z,17.83
2022-12-08T04:55:26.627Z,18.52
2022-12-08T04:57:54.091Z,17.89
2022-12-08T05:00:22.223Z,16.70
2022-12-08T05:02:51.359Z,16.76
2022-12-08T05:05:18.962Z,16.66
2022-12-08T05:07:46.806Z,16.35
2022-12-08T05:10:14.302Z,16.61
2022-12-08T05:12:42.406Z,16.97
2022-12-08T05:15:10.677Z,16.97
2022-12-08T05:17:38.229Z,16.08
2022-12-08T05:20:08.698Z,15.96
2022-12-08T05:22:36.182Z,15.95
2022-12-08T05:25:04.152Z,15.98
2022-12-08T05:27:31.677Z,17.08
2022-12-08T05:29:59.685Z,17.47
2022-12-08T05:32:27.502Z,16.42
2022-12-08T05:34:55.037Z,17.08
2022-12-08T05:37:24.041Z,16.23
2022-12-08T05:39:51.671Z,16.33
2022-12-08T05:42:24.392Z,18.58
2022-12-08T05:44:52.856Z,16.82
2022-12-08T05:47:20.440Z,16.26
2022-12-08T05:49:49.516Z,17.31
2022-12-08T05:52:17.092Z,17.30
2022-12-08T05:54:46.146Z,17.19
2022-12-08T05:57:13.695Z,16.14
2022-12-08T05:59:41.514Z,16.60
2022-12-08T06:02:09.322Z,16.09
2022-12-08T06:04:38.359Z,16.17
2022-12-08T06:07:07.448Z,16.83
2022-12-08T06:09:39.644Z,16.07
2022-12-08T06:12:09.866Z,16.69
2022-12-08T06:14:38.611Z,16.05
2022-12-08T06:17:06.216Z,16.00
2022-12-08T06:19:34.943Z,15.77
2022-12-08T06:22:02.760Z,15.62
2022-12-08T06:24:30.249Z,16.02
2022-12-08T06:26:58.006Z,16.31
2022-12-08T06:29:26.991Z,15.96
2022-12-08T06:31:54.450Z,16.43
2022-12-08T06:34:22.386Z,16.54
2022-12-08T06:36:49.930Z,16.03
2022-12-08T06:39:17.508Z,17.30
2022-12-08T06:41:45.561Z,17.07
2022-12-08T06:44:13.043Z,17.09
2022-12-08T06:46:41.918Z,16.29
2022-12-08T06:49:09.742Z,16.66
2022-12-08T06:51:37.765Z,16.63
2022-12-08T06:54:05.563Z,16.90
2022-12-08T06:56:33.578Z,16.73
2022-12-08T06:59:01.157Z,17.00
2022-12-08T07:01:28.747Z,16.81
2022-12-08T07:03:58.269Z,16.03
2022-12-08T07:06:26.312Z,16.86
2022-12-08T07:08:54.141Z,16.87
2022-12-08T07:11:22.889Z,16.91
2022-12-08T07:13:51.029Z,17.51
2022-12-08T07:16:19.008Z,16.30
2022-12-08T07:18:47.121Z,17.39
2022-12-08T07:21:17.484Z,16.79
2022-12-08T07:23:50.250Z,17.51
2022-12-08T07:26:21.640Z,16.56
2022-12-08T07:28:49.691Z,15.96
2022-12-08T07:31:19.544Z,15.61
2022-12-08T07:33:47.937Z,15.90
2022-12-08T07:36:17.334Z,15.83
2022-12-08T07:38:45.008Z,15.79
2022-12-08T07:41:13.962Z,16.34
2022-12-08T07:43:42.358Z,15.98
2022-12-08T07:46:12.483Z,15.94
2022-12-08T07:48:40.408Z,15.79
2022-12-08T07:51:08.481Z,16.42
2022-12-08T07:53:42.292Z,16.00
2022-12-08T07:56:11.145Z,15.87
2022-12-08T07:58:38.742Z,17.18
2022-12-08T08:01:06.941Z,16.41
2022-12-08T08:03:34.771Z,17.28
2022-12-08T08:06:06.120Z,18.42
2022-12-08T08:08:33.718Z,17.46
2022-12-08T08:11:15.786Z,17.02
2022-12-08T08:13:46.973Z,17.38
2022-12-08T08:16:14.894Z,16.38
2022-12-08T08:18:42.470Z,17.16
2022-12-08T08:21:43.358Z,15.51
2022-12-08T08:23:57.956Z,16.61
2022-12-08T08:26:26.886Z,16.04
2022-12-08T08:28:54.612Z,16.55
2022-12-08T08:31:25.497Z,16.25
2022-12-08T08:33:53.161Z,16.35
2022-12-08T08:36:20.946Z,16.27
2022-12-08T08:38:48.859Z,15.66
2022-12-08T08:41:17.075Z,16.05
2022-12-08T08:43:46.174Z,15.92
2022-12-08T08:46:14.064Z,15.99
2022-12-08T08:48:41.658Z,16.16
2022-12-08T08:51:11.017Z,16.16
2022-12-08T08:53:39.350Z,16.14
2022-12-08T08:56:09.517Z,16.86
2022-12-08T08:58:38.906Z,16.96
2022-12-08T09:01:08.834Z,16.41
2022-12-08T09:03:36.474Z,16.40
2022-12-08T09:06:05.649Z,16.38
2022-12-08T09:08:33.869Z,16.38
2022-12-08T09:11:01.662Z,17.50
2022-12-08T09:13:29.578Z,16.24
2022-12-08T09:15:57.205Z,16.97
2022-12-08T09:18:26.527Z,17.27
2022-12-08T09:20:54.330Z,16.76
2022-12-08T09:23:21.798Z,17.22
2022-12-08T09:25:49.487Z,17.51
2022-12-08T09:28:17.098Z,16.97
2022-12-08T09:30:45.096Z,16.79
2022-12-08T09:33:13.206Z,17.20
2022-12-08T09:35:42.049Z,16.60
2022-12-08T09:38:10.231Z,17.11
2022-12-08T09:40:48.671Z,16.46
2022-12-08T09:43:31.750Z,16.75
2022-12-08T09:46:00.028Z,17.05
2022-12-08T09:48:35.961Z,17.06
2022-12-08T09:51:05.700Z,16.29
2022-12-08T09:53:37.798Z,16.61
2022-12-08T09:56:12.929Z,16.40
2022-12-08T09:58:48.445Z,16.08
2022-12-08T10:01:17.206Z,17.01
2022-12-08T10:03:44.797Z,16.20
2022-12-08T10:06:22.022Z,16.13
2022-12-08T10:09:03.127Z,16.67
2022-12-08T10:11:37.606Z,16.38
2022-12-08T10:14:18.292Z,16.23
2022-12-08T10:16:50.305Z,16.47
2022-12-08T10:19:21.966Z,16.18
2022-12-08T10:21:53.653Z,17.42
2022-12-08T10:24:26.800Z,17.16
2022-12-08T10:26:55.436Z,16.51
2022-12-08T10:29:23.057Z,16.10
2022-12-08T10:31:50.994Z,15.72
2022-12-08T10:34:21.751Z,16.25
2022-12-08T10:36:53.567Z,17.04
2022-12-08T10:39:35.557Z,16.51
2022-12-08T10:42:08.516Z,17.09
2022-12-08T10:44:48.923Z,16.72
2022-12-08T10:47:17.073Z,16.92
2022-12-08T10:49:45.554Z,19.00
2022-12-08T10:52:24.732Z,17.43
2022-12-08T10:54:53.359Z,18.28
2022-12-08T10:57:22.839Z,17.31
2022-12-08T10:59:50.824Z,17.45
2022-12-08T11:02:20.894Z,18.15
2022-12-08T11:04:58.261Z,17.35
2022-12-08T11:07:28.515Z,18.25
2022-12-08T11:09:58.100Z,17.58
2022-12-08T11:12:29.784Z,17.47
2022-12-08T11:15:00.088Z,17.22
2022-12-08T11:17:29.409Z,17.50
2022-12-08T11:19:59.297Z,17.13
2022-12-08T11:22:32.381Z,17.10
2022-12-08T11:25:03.152Z,17.55
2022-12-08T11:27:34.036Z,17.38
2022-12-08T11:30:02.278Z,17.26
2022-12-08T11:32:30.487Z,17.37
2022-12-08T11:35:02.363Z,17.13
2022-12-08T11:37:37.811Z,17.08
2022-12-08T11:40:10.710Z,19.12
2022-12-08T11:42:50.336Z,21.40
2022-12-08T11:45:20.431Z,18.64
2022-12-08T11:47:56.251Z,17.71
2022-12-08T11:50:29.710Z,17.75
2022-12-08T11:53:00.207Z,17.63
2022-12-08T11:55:37.075Z,17.57
2022-12-08T11:58:16.815Z,17.71
2022-12-08T12:00:44.817Z,18.20
2022-12-08T12:03:25.459Z,17.46
2022-12-08T12:06:18.573Z,17.63
2022-12-08T12:09:11.997Z,18.19
2022-12-08T12:11:51.242Z,18.28
2022-12-08T12:14:34.799Z,17.64
2022-12-08T12:17:05.809Z,17.74
2022-12-08T12:19:38.398Z,17.91
2022-12-08T12:22:14.949Z,17.83
2022-12-08T12:24:46.848Z,17.40
2022-12-08T12:27:27.564Z,17.69
2022-12-08T12:29:58.991Z,17.56
2022-12-08T12:32:40.328Z,17.37
2022-12-08T12:35:16.081Z,17.24
2022-12-08T12:37:46.321Z,17.50
2022-12-08T12:40:21.351Z,17.43
2022-12-08T12:43:14.099Z,17.25
2022-12-08T12:45:42.285Z,18.38
2022-12-08T12:48:25.605Z,17.20
2022-12-08T12:50:53.688Z,17.77
2022-12-08T12:53:47.431Z,17.39
2022-12-08T12:56:50.228Z,16.72
2022-12-08T12:59:39.975Z,16.90
2022-12-08T13:02:22.841Z,17.19
2022-12-08T13:05:03.238Z,16.75
2022-12-08T13:07:34.577Z,17.55
2022-12-08T13:10:11.212Z,17.23
2022-12-08T13:12:38.910Z,16.98
2022-12-08T13:15:18.440Z,17.10
2022-12-08T13:17:48.898Z,17.52
2022-12-08T13:20:22.230Z,17.55
2022-12-08T13:23:02.966Z,17.81
2022-12-08T13:25:49.245Z,17.63
2022-12-08T13:28:26.890Z,17.25
2022-12-08T13:30:57.646Z,17.36
2022-12-08T13:33:29.240Z,17.76
2022-12-08T13:36:18.889Z,18.31
2022-12-08T13:38:47.633Z,17.94
2022-12-08T13:41:20.731Z,17.97
2022-12-08T13:44:24.832Z,18.28
2022-12-08T13:51:16.154Z,18.16
2022-12-08T13:58:24.956Z,18.25
2022-12-08T14:01:06.344Z,18.75
2022-12-08T14:04:11.644Z,18.10
2022-12-08T14:06:37.958Z,18.76
2022-12-08T14:09:11.074Z,17.91
2022-12-08T14:11:41.346Z,18.61
2022-12-08T14:14:27.263Z,18.40
2022-12-08T14:17:05.271Z,18.27
2022-12-08T14:19:36.322Z,18.69
2022-12-08T14:22:11.841Z,18.49
2022-12-08T14:24:39.988Z,18.01
2022-12-08T14:27:09.008Z,18.00
2022-12-08T14:29:45.940Z,18.42
2022-12-08T14:32:25.701Z,18.21
2022-12-08T14:34:57.500Z,18.51
2022-12-08T14:37:27.823Z,18.54
2022-12-08T14:40:00.344Z,18.31
2022-12-08T14:42:29.274Z,18.40
2022-12-08T14:45:00.640Z,18.19
2022-12-08T14:47:34.362Z,18.13
2022-12-08T14:50:25.203Z,18.32
2022-12-08T14:52:53.742Z,18.16
2022-12-08T14:55:21.713Z,18.54
2022-12-08T14:57:49.678Z,17.18
2022-12-08T15:00:21.479Z,19.26
2022-12-08T15:02:49.563Z,18.69
2022-12-08T15:05:21.240Z,18.79
2022-12-08T15:07:52.204Z,18.50
2022-12-08T15:10:24.372Z,18.22
2022-12-08T15:13:04.554Z,17.86
2022-12-08T15:15:45.570Z,17.23
2022-12-08T15:18:17.159Z,18.33
2022-12-08T15:20:51.114Z,18.38
2022-12-08T15:23:28.827Z,17.67
2022-12-08T15:25:58.496Z,17.71
2022-12-08T15:28:29.945Z,17.48
2022-12-08T15:30:59.549Z,18.54
2022-12-08T15:33:28.133Z,18.30
2022-12-08T15:35:57.532Z,18.52
2022-12-08T15:38:28.368Z,18.29
2022-12-08T15:40:57.177Z,17.83
2022-12-08T15:43:24.911Z,17.99
2022-12-08T15:46:01.157Z,18.31
2022-12-08T15:48:30.659Z,18.33
2022-12-08T15:51:00.293Z,18.73
2022-12-08T15:53:27.613Z,18.14
2022-12-08T15:56:26.399Z,18.57
2022-12-08T15:58:59.001Z,18.41
2022-12-08T16:01:27.061Z,17.76
2022-12-08T16:04:55.370Z,18.67
2022-12-08T16:09:36.577Z,18.62
2022-12-08T16:12:07.236Z,18.80
2022-12-08T16:17:23.999Z,18.61
2022-12-08T16:19:52.411Z,16.94
2022-12-08T16:25:20.926Z,18.16
2022-12-08T16:28:29.626Z,18.48
2022-12-08T16:30:39.119Z,19.36
2022-12-08T16:33:07.158Z,18.75
2022-12-08T16:35:34.938Z,18.95
2022-12-08T16:38:04.030Z,19.01
2022-12-08T16:40:31.713Z,18.77
2022-12-08T16:42:59.218Z,18.32
2022-12-08T16:45:30.040Z,18.13
2022-12-08T16:47:59.622Z,18.81
2022-12-08T16:50:29.184Z,17.41
2022-12-08T16:52:59.634Z,18.67
2022-12-08T16:55:28.638Z,18.74
2022-12-08T16:57:56.241Z,17.69
2022-12-08T17:00:26.135Z,18.73
2022-12-08T17:02:55.021Z,17.68
2022-12-08T17:05:24.571Z,18.70
2022-12-08T17:07:54.304Z,18.22
2022-12-08T17:10:25.150Z,18.36
2022-12-08T17:12:56.213Z,19.31
2022-12-08T17:15:25.692Z,18.56
2022-12-08T17:17:53.910Z,18.71
2022-12-08T17:20:24.621Z,17.36
2022-12-08T17:22:54.583Z,17.36
2022-12-08T17:25:22.398Z,17.87
2022-12-08T17:27:50.278Z,18.22
2022-12-08T17:30:21.018Z,18.88
2022-12-08T17:32:49.394Z,18.39
2022-12-08T17:35:17.221Z,17.37
2022-12-08T17:37:45.103Z,17.29
2022-12-08T17:40:13.145Z,18.21
2022-12-08T17:42:41.160Z,17.82
2022-12-08T17:45:09.944Z,17.68
2022-12-08T17:47:39.789Z,18.32
2022-12-08T17:50:09.082Z,17.75
2022-12-08T17:52:36.792Z,17.95
2022-12-08T17:55:04.994Z,17.64
2022-12-08T17:57:33.397Z,18.00
2022-12-08T18:00:01.530Z,17.80
2022-12-08T18:02:41.196Z,16.93
2022-12-08T18:05:09.526Z,18.34
2022-12-08T18:07:37.277Z,18.18
2022-12-08T18:10:06.531Z,17.26
2022-12-08T18:12:34.707Z,17.03
2022-12-08T18:15:03.070Z,17.89
2022-12-08T18:17:30.572Z,17.16
2022-12-08T18:19:59.510Z,17.35
2022-12-08T18:22:27.186Z,16.97
2022-12-08T18:24:54.806Z,17.31
2022-12-08T18:27:22.490Z,17.29
2022-12-08T18:29:50.293Z,16.79
2022-12-08T18:32:18.164Z,18.49
2022-12-08T18:34:45.825Z,17.12
2022-12-08T18:37:15.531Z,16.76
2022-12-08T18:39:42.737Z,17.98
2022-12-08T18:42:10.479Z,17.67
2022-12-08T18:44:38.590Z,17.21
2022-12-08T18:47:06.655Z,17.40
2022-12-08T18:49:34.269Z,17.80
2022-12-08T18:52:01.898Z,17.94
2022-12-08T18:54:57.806Z,18.24
2022-12-08T18:57:19.249Z,17.32
2022-12-08T18:59:46.788Z,18.40
2022-12-08T19:02:14.572Z,16.94
2022-12-08T19:04:42.449Z,18.49
2022-12-08T19:07:10.341Z,17.83
2022-12-08T19:09:39.773Z,18.39
2022-12-08T19:12:07.703Z,18.29
2022-12-08T19:14:35.673Z,17.43
2022-12-08T19:17:03.253Z,18.08
2022-12-08T19:19:30.810Z,18.47
2022-12-08T19:21:59.329Z,16.67
2022-12-08T19:24:27.681Z,18.05
2022-12-08T19:26:56.746Z,17.22
2022-12-08T19:29:24.547Z,17.84
2022-12-08T19:31:52.121Z,16.80
2022-12-08T19:34:19.629Z,18.26
2022-12-08T19:36:47.207Z,17.94
2022-12-08T19:39:17.406Z,18.42
2022-12-08T19:41:45.214Z,17.86
2022-12-08T19:44:20.728Z,19.02
2022-12-08T19:46:48.322Z,17.81
2022-12-08T19:49:15.922Z,18.85
2022-12-08T19:51:43.397Z,16.58
2022-12-08T19:54:10.870Z,18.34
2022-12-08T19:56:38.441Z,17.73
2022-12-08T19:59:05.944Z,17.12
2022-12-08T20:01:34.906Z,18.70
2022-12-08T20:04:02.766Z,18.50
2022-12-08T20:06:30.229Z,18.18
2022-12-08T20:08:57.701Z,17.66
2022-12-08T20:11:25.318Z,18.05
2022-12-08T20:13:52.803Z,16.73
2022-12-08T20:16:20.313Z,17.42
2022-12-08T20:18:49.307Z,18.08
2022-12-08T20:21:17.279Z,17.56
2022-12-08T20:23:45.069Z,16.99
2022-12-08T20:26:16.214Z,17.66
2022-12-08T20:28:44.237Z,16.85
2022-12-08T20:31:18.384Z,19.14
2022-12-08T20:33:46.086Z,16.77
2022-12-08T20:36:20.480Z,18.34
2022-12-08T20:38:49.894Z,17.17
2022-12-08T20:41:17.864Z,18.97
2022-12-08T20:43:46.633Z,17.05
2022-12-08T20:46:16.935Z,18.23
2022-12-08T20:48:45.028Z,17.86
2022-12-08T20:51:15.333Z,18.28
2022-12-08T20:53:43.063Z,18.56
2022-12-08T20:56:14.972Z,16.94
2022-12-08T20:58:42.876Z,17.22
2022-12-08T21:01:11.964Z,18.38
2022-12-08T21:03:40.493Z,17.24
2022-12-08T21:06:08.925Z,18.15
2022-12-08T21:08:39.145Z,18.13
2022-12-08T21:11:07.968Z,18.19
2022-12-08T21:13:37.308Z,18.68
2022-12-08T21:16:05.625Z,16.52
2022-12-08T21:18:39.171Z,16.84
2022-12-08T21:21:10.090Z,17.35
2022-12-08T21:23:39.713Z,17.48
2022-12-08T21:26:10.495Z,18.04
2022-12-08T21:28:38.210Z,17.56
2022-12-08T21:31:08.133Z,17.79
2022-12-08T21:33:36.288Z,18.38
2022-12-08T21:36:05.627Z,18.51
2022-12-08T21:38:33.063Z,19.05
2022-12-08T21:41:04.778Z,18.07
2022-12-08T21:43:32.819Z,18.19
2022-12-08T21:46:00.533Z,18.68
2022-12-08T21:48:28.623Z,17.69
2022-12-08T21:50:56.519Z,18.41
2022-12-08T21:53:23.968Z,17.69
2022-12-08T21:55:52.169Z,18.32
2022-12-08T21:58:21.267Z,18.21
2022-12-08T22:00:48.916Z,17.87
2022-12-08T22:03:16.584Z,18.78
2022-12-08T22:05:44.125Z,18.07
2022-12-08T22:08:11.645Z,18.95
2022-12-08T22:10:39.361Z,17.78
2022-12-08T22:13:06.892Z,18.10
2022-12-08T22:15:36.038Z,17.75
2022-12-08T22:18:04.237Z,17.13
2022-12-08T22:20:31.810Z,17.31
2022-12-08T22:22:59.354Z,18.64
2022-12-08T22:25:26.867Z,17.31
2022-12-08T22:27:54.410Z,18.20
2022-12-08T22:30:22.101Z,18.58
2022-12-08T22:32:51.628Z,18.57
2022-12-08T22:35:19.240Z,18.45
2022-12-08T22:37:48.256Z,18.76
2022-12-08T22:40:16.103Z,18.16
2022-12-08T22:42:43.555Z,18.63
2022-12-08T22:45:11.740Z,19.63
2022-12-08T22:47:39.179Z,18.15
2022-12-08T22:50:09.003Z,19.25
2022-12-08T22:52:36.827Z,18.12
2022-12-08T22:55:05.082Z,18.88
2022-12-08T22:57:32.862Z,19.82
2022-12-08T23:00:00.449Z,19.47
2022-12-08T23:02:27.922Z,18.75
2022-12-08T23:04:56.212Z,19.49
2022-12-08T23:07:25.682Z,18.93
2022-12-08T23:09:53.280Z,19.29
2022-12-08T23:12:20.882Z,18.05
2022-12-08T23:14:48.861Z,18.68
2022-12-08T23:17:16.571Z,18.00
2022-12-08T23:19:44.128Z,18.31
2022-12-08T23:22:11.672Z,18.73
2022-12-08T23:24:40.902Z,18.94
2022-12-08T23:27:08.365Z,17.10
2022-12-08T23:29:37.109Z,17.61
2022-12-08T23:32:05.569Z,18.38
2022-12-08T23:34:33.164Z,17.33
2022-12-08T23:37:01.291Z,17.34
2022-12-08T23:39:28.836Z,16.71
2022-12-08T23:41:57.932Z,17.46
2022-12-08T23:44:25.614Z,16.58
2022-12-08T23:46:53.294Z,18.27
2022-12-08T23:49:21.184Z,16.81
2022-12-08T23:51:49.010Z,17.20
2022-12-08T23:54:16.933Z,16.25
2022-12-08T23:56:44.485Z,16.62
2022-12-08T23:59:14.172Z,16.16
